Time;durP1;ratioP1;P1;durP2;ratioP2;P2;SDS_P1;SDS_P2;PMS_P1;PMS_P2;Temp;Humidity;BMP_temperature;BMP_pressure;BME280_temperature;BME280_humidity;BME280_pressure;Samples;Min_cycle;Max_cycle;Signal;HPM_P1;HPM_P2
2022/09/26 00:01:08;;;;;;;3.00;2.40;;;12.70;99.90;;;;;;5019760;28;20699;-53
2022/09/26 00:03:35;;;;;;;3.33;2.77;;;12.70;99.90;;;;;;5027899;28;20284;-52
2022/09/26 00:06:07;;;;;;;5.27;3.17;;;12.70;99.90;;;;;;5018584;28;20567;-52
2022/09/26 00:08:35;;;;;;;3.40;2.90;;;12.70;99.90;;;;;;5025108;28;20698;-54
2022/09/26 00:11:06;;;;;;;3.83;2.70;;;12.80;99.90;;;;;;5020617;28;20710;-53
2022/09/26 00:13:36;;;;;;;5.67;2.83;;;12.60;99.90;;;;;;5012714;28;20200;-52
2022/09/26 00:16:04;;;;;;;3.23;2.43;;;12.80;99.90;;;;;;5019118;28;21698;-53
2022/09/26 00:18:30;;;;;;;3.67;2.70;;;12.60;99.90;;;;;;5020171;28;20216;-53
2022/09/26 00:21:09;;;;;;;3.30;2.73;;;12.70;99.90;;;;;;5021978;28;20595;-53
2022/09/26 00:23:36;;;;;;;4.00;2.63;;;12.70;99.90;;;;;;5031440;28;20197;-53
2022/09/26 00:26:04;;;;;;;3.97;2.53;;;12.70;99.90;;;;;;5026510;28;20201;-52
2022/09/26 00:28:31;;;;;;;4.80;2.47;;;12.80;99.90;;;;;;5013327;28;20711;-53
2022/09/26 00:31:14;;;;;;;3.80;3.00;;;12.70;99.90;;;;;;5022946;28;20208;-54
2022/09/26 00:33:41;;;;;;;6.27;2.60;;;12.80;99.90;;;;;;5024735;28;20241;-53
2022/09/26 00:36:08;;;;;;;3.93;2.57;;;12.80;99.90;;;;;;5025046;28;20201;-53
2022/09/26 00:38:35;;;;;;;3.67;2.47;;;12.80;99.90;;;;;;5016361;28;20276;-52
2022/09/26 00:41:03;;;;;;;3.77;2.80;;;12.70;99.90;;;;;;5016182;28;20200;-54
2022/09/26 00:43:30;;;;;;;4.30;2.60;;;12.60;99.90;;;;;;5024317;28;20208;-53
2022/09/26 00:46:08;;;;;;;3.00;2.53;;;12.50;99.90;;;;;;5023482;28;20207;-53
2022/09/26 00:48:36;;;;;;;3.03;2.73;;;12.50;99.90;;;;;;5022711;28;20585;-53
2022/09/26 00:51:03;;;;;;;5.30;3.27;;;12.60;99.90;;;;;;5022076;28;20195;-53
2022/09/26 00:53:38;;;;;;;3.97;2.93;;;12.60;99.90;;;;;;5020174;28;21853;-53
2022/09/26 00:56:14;;;;;;;3.73;3.07;;;12.40;99.90;;;;;;5023648;28;20218;-53
2022/09/26 00:58:47;;;;;;;6.33;3.37;;;12.40;99.90;;;;;;5021493;28;20298;-53
2022/09/26 01:01:14;;;;;;;3.70;2.93;;;12.30;99.90;;;;;;5022437;28;20233;-53
2022/09/26 01:03:43;;;;;;;7.40;3.80;;;12.30;99.90;;;;;;5020755;28;20204;-52
2022/09/26 01:06:10;;;;;;;6.10;3.43;;;12.30;99.90;;;;;;5021032;28;20209;-53
2022/09/26 01:08:51;;;;;;;6.60;3.63;;;12.30;99.90;;;;;;5025652;28;20216;-54
2022/09/26 01:11:19;;;;;;;5.47;3.50;;;12.50;99.90;;;;;;5023912;28;20719;-52
2022/09/26 01:13:47;;;;;;;6.10;3.57;;;12.40;99.90;;;;;;5027744;28;20304;-52
2022/09/26 01:16:14;;;;;;;3.97;3.53;;;12.50;99.90;;;;;;5025249;28;20664;-52
2022/09/26 01:18:43;;;;;;;8.57;3.20;;;12.40;99.90;;;;;;5019751;28;20208;-55
2022/09/26 01:21:47;;;;;;;5.30;3.33;;;12.60;99.90;;;;;;5030197;28;20217;-52
2022/09/26 01:24:26;;;;;;;4.77;3.33;;;12.50;99.90;;;;;;5014739;28;20361;-53
2022/09/26 01:26:53;;;;;;;8.30;3.33;;;12.40;99.90;;;;;;5031370;28;20207;-53
2022/09/26 01:29:49;;;;;;;5.93;3.53;;;12.50;99.90;;;;;;5023715;28;20232;-52
2022/09/26 01:35:26;;;;;;;5.97;3.47;;;12.30;99.90;;;;;;5013393;28;20200;-52
2022/09/26 01:38:11;;;;;;;7.70;3.53;;;12.30;99.90;;;;;;5017905;28;20203;-54
2022/09/26 01:40:58;;;;;;;4.67;3.23;;;12.20;99.90;;;;;;5020655;28;20202;-53
2022/09/26 01:43:57;;;;;;;5.60;3.47;;;12.30;99.90;;;;;;5020698;28;20189;-53
2022/09/26 01:46:55;;;;;;;5.80;3.17;;;12.30;99.90;;;;;;5021371;28;20207;-53
2022/09/26 01:49:30;;;;;;;4.70;3.03;;;12.30;99.90;;;;;;5021556;28;20267;-53
2022/09/26 01:52:13;;;;;;;4.17;2.77;;;12.20;99.90;;;;;;5020059;28;20397;-54
2022/09/26 01:54:56;;;;;;;3.20;2.43;;;12.20;99.90;;;;;;5018245;28;20201;-53
2022/09/26 01:57:30;;;;;;;4.37;2.70;;;12.30;99.90;;;;;;5016045;28;20210;-53
2022/09/26 02:00:02;;;;;;;2.77;2.50;;;12.30;99.90;;;;;;5016317;28;20213;-52
2022/09/26 02:02:35;;;;;;;7.10;3.03;;;12.20;99.90;;;;;;5015788;28;20239;-53
2022/09/26 02:05:32;;;;;;;4.93;2.73;;;12.30;99.90;;;;;;5015801;28;20209;-53
2022/09/26 02:08:08;;;;;;;4.60;2.50;;;12.40;99.90;;;;;;5019587;28;20207;-53
2022/09/26 02:10:48;;;;;;;3.03;2.43;;;12.30;99.90;;;;;;5015164;28;20209;-52
2022/09/26 02:13:34;;;;;;;5.60;2.53;;;12.30;99.90;;;;;;5012758;28;20205;-52
2022/09/26 02:16:07;;;;;;;6.63;2.50;;;12.30;99.90;;;;;;5016143;28;20199;-53
2022/09/26 02:18:46;;;;;;;3.97;2.33;;;12.20;99.90;;;;;;5014181;28;20193;-53
2022/09/26 02:21:22;;;;;;;4.13;2.10;;;12.20;99.90;;;;;;5016837;28;20295;-53
2022/09/26 02:23:51;;;;;;;3.97;2.23;;;12.10;99.90;;;;;;5011518;28;20208;-53
2022/09/26 02:26:18;;;;;;;4.73;1.93;;;12.20;99.90;;;;;;5015618;28;20204;-52
2022/09/26 02:28:45;;;;;;;3.90;2.43;;;12.20;99.90;;;;;;5016129;28;22110;-53
2022/09/26 02:31:19;;;;;;;3.80;2.00;;;12.20;99.90;;;;;;5016787;28;20237;-53
2022/09/26 02:33:49;;;;;;;4.67;2.47;;;12.20;99.90;;;;;;5015430;28;20630;-52
2022/09/26 02:36:18;;;;;;;4.53;2.20;;;12.10;99.90;;;;;;5019756;28;20213;-53
2022/09/26 02:38:45;;;;;;;3.00;2.30;;;12.20;99.90;;;;;;5014140;28;20200;-54
2022/09/26 02:41:27;;;;;;;4.03;2.20;;;12.20;99.90;;;;;;5014338;28;20232;-53
2022/09/26 02:44:09;;;;;;;2.80;1.97;;;12.20;99.90;;;;;;5020107;28;20290;-53
2022/09/26 02:46:55;;;;;;;3.77;1.87;;;12.20;99.90;;;;;;5017088;28;20676;-53
2022/09/26 02:49:40;;;;;;;2.87;1.80;;;12.20;99.90;;;;;;5013233;28;20288;-52
2022/09/26 02:52:30;;;;;;;5.60;2.10;;;12.20;99.90;;;;;;5015496;28;20211;-53
2022/09/26 02:55:35;;;;;;;3.87;2.20;;;12.20;99.90;;;;;;5019930;28;20214;-54
2022/09/26 02:58:22;;;;;;;4.90;2.00;;;12.10;99.90;;;;;;5034979;28;20219;-52
2022/09/26 03:01:20;;;;;;;4.03;2.03;;;12.00;99.90;;;;;;5018369;28;20205;-53
2022/09/26 03:04:15;;;;;;;3.37;1.90;;;12.10;99.90;;;;;;5014686;28;20647;-53
2022/09/26 03:06:45;;;;;;;2.50;1.90;;;12.10;99.90;;;;;;5015516;28;20638;-53
2022/09/26 03:09:14;;;;;;;4.17;2.07;;;12.10;99.90;;;;;;5018347;28;20615;-53
2022/09/26 03:11:43;;;;;;;3.07;1.93;;;12.00;99.90;;;;;;5014457;28;20203;-52
2022/09/26 03:14:12;;;;;;;3.83;1.90;;;12.00;99.90;;;;;;5017055;28;20202;-52
2022/09/26 03:16:42;;;;;;;4.80;1.70;;;12.10;99.90;;;;;;5016664;28;20281;-53
2022/09/26 03:19:17;;;;;;;5.80;1.70;;;12.20;99.90;;;;;;5016984;28;20574;-52
2022/09/26 03:21:44;;;;;;;6.07;1.80;;;12.10;99.90;;;;;;5025134;28;20199;-51
2022/09/26 03:24:12;;;;;;;5.63;2.00;;;12.00;99.90;;;;;;5016083;28;20663;-53
2022/09/26 03:26:40;;;;;;;2.33;1.57;;;11.90;99.90;;;;;;5015135;28;20198;-53
2022/09/26 03:29:07;;;;;;;3.53;1.70;;;11.80;99.90;;;;;;5010001;28;20221;-53
2022/09/26 03:31:34;;;;;;;3.13;1.60;;;11.80;99.90;;;;;;5015513;28;20194;-52
2022/09/26 03:34:01;;;;;;;5.10;1.57;;;11.80;99.90;;;;;;5018660;28;20193;-53
2022/09/26 03:36:28;;;;;;;2.63;1.50;;;11.70;99.90;;;;;;5015909;28;20208;-54
2022/09/26 03:38:55;;;;;;;3.30;1.60;;;11.70;99.90;;;;;;5012079;28;20248;-54
2022/09/26 03:41:22;;;;;;;4.37;1.40;;;11.70;99.90;;;;;;5017729;28;20204;-54
2022/09/26 03:43:49;;;;;;;3.70;1.80;;;11.70;99.90;;;;;;5013270;28;20236;-54
2022/09/26 03:46:17;;;;;;;3.53;1.40;;;11.70;99.90;;;;;;5018090;28;20205;-54
2022/09/26 03:48:44;;;;;;;4.87;1.83;;;11.80;99.90;;;;;;5025448;28;20247;-53
2022/09/26 03:51:12;;;;;;;4.23;1.80;;;11.70;99.90;;;;;;5022230;28;20204;-53
2022/09/26 03:53:42;;;;;;;3.07;1.90;;;11.70;99.90;;;;;;5024748;28;20194;-54
2022/09/26 03:56:11;;;;;;;2.40;1.63;;;11.80;99.90;;;;;;5022160;28;20204;-53
2022/09/26 03:58:38;;;;;;;5.27;1.90;;;11.80;99.90;;;;;;5022406;28;21153;-54
2022/09/26 04:01:08;;;;;;;4.93;1.80;;;11.80;99.90;;;;;;5023800;28;20227;-54
2022/09/26 04:03:36;;;;;;;5.30;1.80;;;11.90;99.90;;;;;;5024623;28;20207;-54
2022/09/26 04:06:04;;;;;;;5.07;1.67;;;11.80;99.90;;;;;;5019708;28;20647;-53
2022/09/26 04:08:31;;;;;;;2.93;1.80;;;11.90;99.90;;;;;;5024798;28;20226;-53
2022/09/26 04:11:03;;;;;;;2.60;1.70;;;11.90;99.90;;;;;;5022368;28;20221;-54
2022/09/26 04:13:31;;;;;;;2.47;1.60;;;11.70;99.90;;;;;;5023327;28;20219;-53
2022/09/26 04:16:22;;;;;;;3.03;1.40;;;11.70;99.90;;;;;;5025121;28;20670;-54
2022/09/26 04:18:55;;;;;;;2.83;1.43;;;11.70;99.90;;;;;;5026001;28;20646;-54
2022/09/26 04:21:24;;;;;;;4.20;2.03;;;11.70;99.90;;;;;;5023390;28;20202;-53
2022/09/26 04:23:52;;;;;;;2.17;1.87;;;11.80;99.90;;;;;;5028764;28;20556;-54
2022/09/26 04:26:22;;;;;;;4.47;1.73;;;11.70;99.90;;;;;;5025791;28;20200;-54
2022/09/26 04:28:53;;;;;;;2.97;1.50;;;11.70;99.90;;;;;;5012578;28;20215;-53
2022/09/26 04:31:20;;;;;;;2.63;1.70;;;11.60;99.90;;;;;;5027050;28;20681;-53
2022/09/26 04:33:48;;;;;;;7.97;1.67;;;11.60;99.90;;;;;;5022143;28;20232;-54
2022/09/26 04:36:16;;;;;;;3.13;1.67;;;11.60;99.90;;;;;;5023035;28;20204;-53
2022/09/26 04:38:43;;;;;;;3.53;1.73;;;11.70;99.90;;;;;;5020546;28;20236;-53
2022/09/26 04:41:16;;;;;;;3.30;1.60;;;11.50;99.90;;;;;;5026219;28;20564;-54
2022/09/26 04:43:43;;;;;;;2.80;1.70;;;11.50;99.90;;;;;;5033045;28;20199;-53
2022/09/26 04:46:13;;;;;;;2.67;1.60;;;11.40;99.90;;;;;;5031165;28;20190;-52
2022/09/26 04:48:50;;;;;;;8.73;2.10;;;11.30;99.90;;;;;;5019352;28;20660;-55
2022/09/26 04:51:18;;;;;;;3.97;1.80;;;11.50;99.90;;;;;;5029644;28;20203;-53
2022/09/26 04:53:45;;;;;;;4.27;2.27;;;11.50;99.90;;;;;;5031950;28;20239;-53
2022/09/26 04:56:14;;;;;;;4.13;2.10;;;11.50;99.90;;;;;;5028408;28;20207;-53
2022/09/26 04:58:42;;;;;;;3.77;1.87;;;11.50;99.90;;;;;;5023871;28;20194;-53
2022/09/26 05:01:12;;;;;;;7.43;2.00;;;11.50;99.90;;;;;;5027057;28;20694;-53
2022/09/26 05:03:40;;;;;;;5.33;2.00;;;11.40;99.90;;;;;;5027116;28;21102;-53
2022/09/26 05:06:08;;;;;;;7.37;2.07;;;11.40;99.90;;;;;;5025881;28;20562;-53
2022/09/26 05:08:36;;;;;;;5.10;2.00;;;11.40;99.90;;;;;;5026376;28;20198;-53
2022/09/26 05:11:03;;;;;;;5.67;2.37;;;11.40;99.90;;;;;;5023124;28;20223;-53
2022/09/26 05:13:30;;;;;;;4.70;2.03;;;11.50;99.90;;;;;;5024805;28;20229;-53
2022/09/26 05:16:01;;;;;;;3.50;1.67;;;11.40;99.90;;;;;;5024657;28;20660;-53
2022/09/26 05:18:28;;;;;;;5.77;2.03;;;11.40;99.90;;;;;;5027863;28;20713;-53
2022/09/26 05:20:56;;;;;;;4.90;2.10;;;11.40;99.90;;;;;;5028983;28;20208;-53
2022/09/26 05:26:19;;;;;;;6.87;2.23;;;11.40;99.90;;;;;;5023664;28;20199;-53
2022/09/26 05:29:00;;;;;;;3.30;2.17;;;11.50;99.90;;;;;;5025996;28;20194;-52
2022/09/26 05:31:35;;;;;;;3.37;2.13;;;11.40;99.90;;;;;;5025016;28;20193;-53
2022/09/26 05:34:09;;;;;;;6.27;2.00;;;11.50;99.90;;;;;;5020493;28;20193;-53
2022/09/26 05:36:41;;;;;;;4.40;2.10;;;11.50;99.90;;;;;;5013845;28;20208;-53
2022/09/26 05:40:55;;;;;;;3.20;2.20;;;11.50;99.90;;;;;;5016979;28;20661;-54
2022/09/26 05:41:57;;;;;;;6.90;2.30;;;11.40;99.90;;;;;;5016430;28;20283;-53
2022/09/26 05:44:25;;;;;;;5.33;2.20;;;11.50;99.90;;;;;;5017573;28;20194;-53
2022/09/26 05:46:56;;;;;;;3.47;1.95;;;11.50;99.90;;;;;;4723457;28;10001318;-53
2022/09/26 05:49:24;;;;;;;8.17;2.43;;;11.50;99.90;;;;;;5003231;28;20580;-53
2022/09/26 05:51:52;;;;;;;4.47;2.47;;;11.50;99.90;;;;;;5016230;28;20208;-53
2022/09/26 05:54:19;;;;;;;7.50;2.50;;;11.50;99.90;;;;;;5014163;28;20666;-53
2022/09/26 05:56:46;;;;;;;2.80;1.70;;;11.60;99.90;;;;;;5015335;28;20195;-53
2022/09/26 05:59:13;;;;;;;3.70;2.00;;;11.50;99.90;;;;;;5019609;28;20205;-53
2022/09/26 06:01:39;;;;;;;4.27;2.07;;;11.50;99.90;;;;;;5014923;28;20302;-52
2022/09/26 06:04:06;;;;;;;3.47;2.20;;;11.40;99.90;;;;;;5015673;28;20207;-53
2022/09/26 06:06:34;;;;;;;4.40;2.20;;;11.40;99.90;;;;;;5015925;28;20551;-53
2022/09/26 06:09:02;;;;;;;2.90;1.90;;;11.60;99.90;;;;;;5014902;28;20198;-53
2022/09/26 06:11:31;;;;;;;2.63;1.60;;;11.50;99.90;;;;;;5016581;28;20722;-53
2022/09/26 06:13:59;;;;;;;3.33;2.10;;;11.40;99.90;;;;;;5019033;28;20655;-53
2022/09/26 06:16:27;;;;;;;4.63;2.20;;;11.40;99.90;;;;;;5016011;28;20245;-52
2022/09/26 06:18:54;;;;;;;2.70;1.70;;;11.40;99.90;;;;;;5017504;28;20230;-55
2022/09/26 06:21:22;;;;;;;3.77;2.10;;;11.40;99.90;;;;;;5015337;28;20674;-53
2022/09/26 06:23:49;;;;;;;4.23;2.13;;;11.40;99.90;;;;;;5017846;28;20296;-54
2022/09/26 06:26:22;;;;;;;7.00;2.33;;;11.50;99.90;;;;;;5014912;28;20213;-53
2022/09/26 06:28:58;;;;;;;4.90;2.00;;;11.60;99.90;;;;;;5016470;28;20202;-52
2022/09/26 06:31:25;;;;;;;4.83;2.57;;;11.60;99.90;;;;;;5022115;28;20220;-53
2022/09/26 06:33:52;;;;;;;4.97;2.83;;;11.60;99.90;;;;;;5012673;28;20197;-53
2022/09/26 06:36:20;;;;;;;4.40;2.37;;;11.60;99.90;;;;;;5016416;28;20204;-53
2022/09/26 06:38:48;;;;;;;6.03;3.00;;;11.50;99.90;;;;;;5015918;28;20208;-52
2022/09/26 06:41:15;;;;;;;5.67;2.90;;;11.50;99.90;;;;;;5019871;28;20679;-54
2022/09/26 06:43:46;;;;;;;9.47;2.90;;;11.60;99.90;;;;;;5024369;28;20667;-55
2022/09/26 06:46:13;;;;;;;6.40;2.70;;;11.50;99.90;;;;;;5016612;28;20214;-53
2022/09/26 06:48:41;;;;;;;5.57;2.80;;;11.50;99.90;;;;;;5012769;28;20241;-53
2022/09/26 06:51:12;;;;;;;6.07;2.90;;;11.60;99.90;;;;;;5013486;28;20222;-54
2022/09/26 06:53:40;;;;;;;7.77;3.10;;;11.50;99.90;;;;;;5012842;28;20201;-52
2022/09/26 06:56:07;;;;;;;6.63;2.80;;;11.60;99.90;;;;;;5014904;28;20538;-52
2022/09/26 06:58:34;;;;;;;4.73;2.50;;;11.50;99.90;;;;;;5017624;28;20214;-54
2022/09/26 07:01:02;;;;;;;3.23;2.60;;;11.40;99.90;;;;;;5012620;28;20226;-52
2022/09/26 07:03:28;;;;;;;5.37;2.40;;;11.50;99.90;;;;;;5014677;28;20215;-54
2022/09/26 07:05:56;;;;;;;5.40;2.67;;;11.50;99.90;;;;;;5013274;28;20207;-53
2022/09/26 07:08:24;;;;;;;5.73;2.63;;;11.70;99.90;;;;;;5011075;28;20204;-53
2022/09/26 07:11:12;;;;;;;5.37;2.10;;;11.70;99.90;;;;;;5008841;28;20247;-53
2022/09/26 07:14:00;;;;;;;5.17;2.50;;;11.70;99.90;;;;;;5011042;28;20305;-52
2022/09/26 07:16:28;;;;;;;4.43;2.17;;;11.70;99.90;;;;;;5012913;28;20208;-53
2022/09/26 07:18:55;;;;;;;4.93;2.67;;;11.60;99.90;;;;;;5013746;28;20211;-52
2022/09/26 07:21:22;;;;;;;7.90;2.03;;;11.70;99.90;;;;;;5012134;28;20594;-52
2022/09/26 07:23:49;;;;;;;3.90;2.00;;;11.80;99.90;;;;;;5016015;28;20200;-52
2022/09/26 07:26:15;;;;;;;3.70;1.93;;;11.80;99.90;;;;;;5017622;28;20330;-52
2022/09/26 07:28:43;;;;;;;3.07;1.73;;;11.80;99.90;;;;;;5006310;28;20213;-52
2022/09/26 07:31:10;;;;;;;3.83;1.70;;;11.80;99.90;;;;;;5012123;28;20678;-52
2022/09/26 07:33:38;;;;;;;3.93;1.90;;;11.90;99.90;;;;;;5014161;28;20227;-52
2022/09/26 07:36:07;;;;;;;6.30;2.70;;;11.90;99.90;;;;;;5013125;28;20210;-52
2022/09/26 07:38:34;;;;;;;4.40;1.63;;;12.00;99.90;;;;;;5010785;28;20210;-53
2022/09/26 07:41:00;;;;;;;2.77;1.63;;;11.90;99.90;;;;;;5016381;28;20241;-54
2022/09/26 07:43:27;;;;;;;2.80;1.67;;;12.00;99.90;;;;;;5013587;28;20607;-52
2022/09/26 07:51:44;;;;;;;2.53;1.57;;;12.20;99.90;;;;;;5014223;28;20228;-53
2022/09/26 07:54:11;;;;;;;4.93;1.87;;;12.10;99.90;;;;;;5010343;28;20291;-53
2022/09/26 07:56:39;;;;;;;5.00;1.77;;;12.20;99.90;;;;;;5012463;28;20200;-52
2022/09/26 07:59:05;;;;;;;4.03;1.50;;;12.10;99.90;;;;;;5013150;28;20225;-53
2022/09/26 08:01:36;;;;;;;3.13;2.00;;;12.10;99.90;;;;;;5007608;28;20254;-52
2022/09/26 08:04:05;;;;;;;2.33;1.33;;;12.20;99.90;;;;;;5014443;28;20555;-52
2022/09/26 08:06:33;;;;;;;3.83;1.40;;;12.10;99.90;;;;;;5014930;28;20689;-52
2022/09/26 08:09:00;;;;;;;2.43;1.40;;;12.20;99.90;;;;;;5015280;28;20214;-55
2022/09/26 08:11:27;;;;;;;3.70;1.13;;;12.20;99.90;;;;;;5015424;28;20221;-50
2022/09/26 08:13:54;;;;;;;3.40;1.70;;;12.20;99.90;;;;;;5016282;28;20564;-52
2022/09/26 08:16:24;;;;;;;3.47;1.87;;;12.10;99.90;;;;;;5021806;28;20208;-51
2022/09/26 08:18:53;;;;;;;2.20;1.40;;;12.20;99.90;;;;;;5013087;28;20207;-53
2022/09/26 08:21:20;;;;;;;3.43;1.90;;;12.20;99.90;;;;;;5015376;28;20207;-52
2022/09/26 08:23:47;;;;;;;2.60;1.67;;;12.20;99.90;;;;;;5013919;28;20252;-52
2022/09/26 08:26:14;;;;;;;6.90;1.77;;;12.20;99.90;;;;;;5017248;28;20671;-52
2022/09/26 08:28:41;;;;;;;3.90;1.57;;;12.20;99.90;;;;;;5015276;28;20201;-51
2022/09/26 08:31:08;;;;;;;2.57;1.40;;;12.30;99.90;;;;;;5020355;28;20222;-53
2022/09/26 08:33:39;;;;;;;3.13;1.67;;;12.20;99.90;;;;;;5014809;28;20208;-52
2022/09/26 08:36:14;;;;;;;3.27;1.73;;;12.40;99.90;;;;;;5016117;28;20227;-53
2022/09/26 08:38:41;;;;;;;3.03;1.80;;;12.40;99.90;;;;;;5015462;28;20210;-52
2022/09/26 08:41:34;;;;;;;4.17;1.50;;;12.30;99.90;;;;;;5019100;28;20207;-52
2022/09/26 08:44:42;;;;;;;5.33;1.77;;;12.40;99.90;;;;;;5011771;28;20291;-52
2022/09/26 08:47:15;;;;;;;3.73;1.30;;;12.40;99.90;;;;;;5018868;28;20729;-52
2022/09/26 08:49:58;;;;;;;2.90;1.33;;;12.40;99.90;;;;;;5015882;28;20248;-52
2022/09/26 08:52:55;;;;;;;6.53;1.90;;;12.40;99.90;;;;;;5014171;28;20249;-52
2022/09/26 08:55:25;;;;;;;5.10;2.10;;;12.40;99.90;;;;;;5015535;28;20263;-52
2022/09/26 08:58:00;;;;;;;4.50;1.57;;;12.40;99.90;;;;;;5013949;28;20205;-54
2022/09/26 09:00:31;;;;;;;3.17;1.77;;;12.40;99.90;;;;;;5014122;28;20675;-52
2022/09/26 09:03:01;;;;;;;2.93;1.23;;;12.40;99.90;;;;;;5018045;28;21042;-52
2022/09/26 09:05:42;;;;;;;4.80;1.90;;;12.40;99.90;;;;;;5018787;28;20224;-52
2022/09/26 09:08:20;;;;;;;4.97;1.63;;;12.40;99.90;;;;;;5019625;28;20709;-52
2022/09/26 09:11:00;;;;;;;3.27;1.87;;;12.30;99.90;;;;;;5015930;28;20215;-52
2022/09/26 09:13:51;;;;;;;2.37;1.70;;;12.40;99.90;;;;;;5014953;28;20191;-51
2022/09/26 09:16:44;;;;;;;5.83;1.90;;;12.30;99.90;;;;;;5014542;28;20208;-54
2022/09/26 09:19:38;;;;;;;3.83;1.87;;;12.30;99.90;;;;;;5014218;28;20215;-54
2022/09/26 09:22:17;;;;;;;10.93;2.10;;;12.20;99.90;;;;;;5014424;28;20301;-53
2022/09/26 09:25:02;;;;;;;2.40;1.73;;;12.20;99.90;;;;;;5015848;28;20217;-53
2022/09/26 09:27:37;;;;;;;2.93;1.87;;;12.20;99.90;;;;;;5015049;28;20275;-54
2022/09/26 09:30:22;;;;;;;4.90;2.07;;;12.20;99.90;;;;;;5015242;28;20261;-53
2022/09/26 09:32:54;;;;;;;6.33;2.40;;;12.20;99.90;;;;;;5023594;28;20205;-51
2022/09/26 09:35:38;;;;;;;5.70;2.23;;;12.10;99.90;;;;;;5016961;28;20612;-52
2022/09/26 09:38:09;;;;;;;5.07;2.47;;;12.20;99.90;;;;;;5014212;28;20655;-52
2022/09/26 09:41:01;;;;;;;4.00;1.77;;;12.10;99.90;;;;;;5011571;28;20205;-53
2022/09/26 09:43:37;;;;;;;4.00;1.83;;;12.00;99.90;;;;;;5025511;28;20635;-56
2022/09/26 09:46:14;;;;;;;6.57;2.10;;;12.00;99.90;;;;;;5017125;28;20574;-59
2022/09/26 09:48:42;;;;;;;2.80;1.87;;;12.10;99.90;;;;;;5015210;28;20298;-54
2022/09/26 09:51:28;;;;;;;2.63;1.77;;;12.10;99.90;;;;;;5015601;28;20244;-54
2022/09/26 09:54:36;;;;;;;6.63;2.60;;;12.10;99.90;;;;;;5016398;28;20556;-53
2022/09/26 09:57:28;;;;;;;5.33;2.50;;;12.10;99.90;;;;;;5013511;28;20206;-52
2022/09/26 10:00:23;;;;;;;4.93;2.40;;;12.30;99.90;;;;;;5014015;28;20212;-52
2022/09/26 10:03:02;;;;;;;5.63;2.07;;;12.30;99.90;;;;;;5031517;28;20224;-54
2022/09/26 10:05:46;;;;;;;3.27;2.40;;;12.40;99.90;;;;;;5015860;28;20195;-52
2022/09/26 10:08:18;;;;;;;5.30;2.90;;;12.30;99.90;;;;;;5019836;28;20564;-52
2022/09/26 10:10:57;;;;;;;4.00;2.43;;;12.30;99.90;;;;;;5018744;28;20654;-55
2022/09/26 10:13:26;;;;;;;8.20;2.60;;;12.30;99.90;;;;;;5015324;28;20295;-53
2022/09/26 10:16:05;;;;;;;5.70;2.47;;;12.30;99.90;;;;;;5018126;28;20197;-52
2022/09/26 10:18:50;;;;;;;3.27;2.13;;;12.30;99.90;;;;;;5013558;28;20247;-53
2022/09/26 10:21:19;;;;;;;4.60;2.20;;;12.10;99.90;;;;;;5012619;28;20200;-54
2022/09/26 10:23:49;;;;;;;3.47;2.37;;;12.20;99.90;;;;;;5017072;28;20266;-52
2022/09/26 10:26:23;;;;;;;6.10;2.60;;;12.20;99.90;;;;;;5014594;28;20205;-52
2022/09/26 10:28:56;;;;;;;7.93;2.40;;;12.10;99.90;;;;;;5017037;28;20196;-54
2022/09/26 10:31:36;;;;;;;4.03;2.47;;;12.10;99.90;;;;;;5013768;28;20304;-52
2022/09/26 10:34:23;;;;;;;4.97;2.47;;;12.20;99.90;;;;;;5017830;28;20206;-52
2022/09/26 10:36:49;;;;;;;5.63;2.37;;;12.10;99.90;;;;;;5017669;28;20779;-54
2022/09/26 10:42:21;;;;;;;5.73;2.33;;;12.20;99.90;;;;;;5017718;28;20201;-52
2022/09/26 10:44:49;;;;;;;3.93;2.37;;;12.20;99.90;;;;;;5015822;28;20196;-52
2022/09/26 10:47:23;;;;;;;4.60;2.40;;;12.00;99.90;;;;;;5017052;28;20294;-51
2022/09/26 10:50:22;;;;;;;3.80;2.27;;;12.00;99.90;;;;;;5010941;28;20323;-52
2022/09/26 10:53:00;;;;;;;3.87;2.40;;;11.90;99.90;;;;;;5015793;28;20206;-53
2022/09/26 10:55:31;;;;;;;7.33;2.50;;;12.00;99.90;;;;;;5014313;28;20685;-52
2022/09/26 10:58:04;;;;;;;4.03;2.20;;;12.00;99.90;;;;;;5019999;28;20198;-52
2022/09/26 11:00:50;;;;;;;7.47;3.43;;;12.00;99.90;;;;;;5015777;28;20225;-53
2022/09/26 11:03:22;;;;;;;4.57;2.30;;;12.00;99.90;;;;;;5011534;28;20255;-53
2022/09/26 11:05:55;;;;;;;5.13;2.27;;;12.00;99.90;;;;;;5008425;28;20250;-51
2022/09/26 11:08:25;;;;;;;3.27;2.53;;;11.90;99.90;;;;;;5016222;28;20194;-51
2022/09/26 11:10:53;;;;;;;4.30;2.33;;;11.90;99.90;;;;;;5015240;28;20236;-52
2022/09/26 11:13:22;;;;;;;3.23;2.40;;;12.00;99.90;;;;;;5018445;28;20211;-52
2022/09/26 11:16:00;;;;;;;3.27;2.30;;;12.00;99.90;;;;;;5012524;28;20658;-52
2022/09/26 11:18:51;;;;;;;3.67;2.63;;;12.00;99.90;;;;;;5012925;28;20292;-52
2022/09/26 11:21:36;;;;;;;5.60;2.30;;;12.00;99.90;;;;;;5016906;28;20211;-52
2022/09/26 11:24:36;;;;;;;3.87;2.13;;;12.10;99.90;;;;;;5012778;28;20691;-52
2022/09/26 11:27:09;;;;;;;3.73;2.20;;;12.00;99.90;;;;;;5016607;28;20292;-53
2022/09/26 11:29:42;;;;;;;2.50;2.00;;;12.10;99.90;;;;;;5010875;28;20197;-53
2022/09/26 11:32:42;;;;;;;2.47;1.87;;;12.00;99.90;;;;;;5017126;28;20513;-52
2022/09/26 11:35:28;;;;;;;6.93;2.60;;;12.00;99.90;;;;;;5009841;28;20632;-53
2022/09/26 11:38:14;;;;;;;3.33;2.00;;;12.10;99.90;;;;;;5017095;28;20231;-52
2022/09/26 11:41:07;;;;;;;3.97;2.37;;;12.00;99.90;;;;;;5015341;28;20564;-52
2022/09/26 11:43:43;;;;;;;2.17;1.80;;;12.10;99.90;;;;;;5010420;28;20203;-51
2022/09/26 11:46:30;;;;;;;4.23;1.90;;;12.10;99.90;;;;;;5011367;28;20636;-52
2022/09/26 11:49:18;;;;;;;8.53;4.00;;;12.10;99.90;;;;;;5011444;28;20256;-52
2022/09/26 11:52:33;;;;;;;3.07;1.63;;;12.20;99.90;;;;;;5011622;28;20219;-53
2022/09/26 11:55:05;;;;;;;2.83;1.67;;;12.30;99.90;;;;;;5013502;28;20201;-52
2022/09/26 11:58:02;;;;;;;4.63;1.73;;;12.20;99.90;;;;;;5013533;28;20211;-52
2022/09/26 12:00:40;;;;;;;2.47;1.50;;;12.20;99.90;;;;;;5012429;28;21129;-51
2022/09/26 12:03:20;;;;;;;3.33;1.90;;;12.20;99.90;;;;;;5011345;28;20203;-53
2022/09/26 12:06:06;;;;;;;3.33;1.70;;;12.20;99.90;;;;;;5009480;28;21027;-54
2022/09/26 12:09:00;;;;;;;2.87;1.90;;;12.20;99.90;;;;;;5012562;28;20889;-53
2022/09/26 12:11:45;;;;;;;3.10;1.60;;;12.20;99.90;;;;;;5014484;28;20313;-53
2022/09/26 12:14:33;;;;;;;2.23;1.77;;;12.20;99.90;;;;;;5010855;28;20207;-53
2022/09/26 12:17:29;;;;;;;1.60;1.27;;;12.30;99.90;;;;;;5012308;28;20197;-53
2022/09/26 12:20:12;;;;;;;2.00;1.40;;;12.20;99.90;;;;;;5014590;28;20196;-53
2022/09/26 12:23:06;;;;;;;2.60;1.27;;;12.10;99.90;;;;;;5014136;28;20619;-53
2022/09/26 12:26:00;;;;;;;2.23;1.67;;;12.20;99.90;;;;;;5014418;28;20212;-52
2022/09/26 12:29:04;;;;;;;5.27;1.50;;;12.30;99.90;;;;;;5011913;28;20214;-53
2022/09/26 12:31:58;;;;;;;1.93;1.50;;;12.30;99.90;;;;;;5011561;28;20212;-53
2022/09/26 12:34:46;;;;;;;1.50;1.20;;;12.30;99.90;;;;;;5010702;28;20273;-53
2022/09/26 12:37:42;;;;;;;3.53;1.77;;;12.30;99.90;;;;;;5013299;28;20203;-53
2022/09/26 12:40:31;;;;;;;3.63;1.80;;;12.20;99.90;;;;;;5011988;28;20196;-53
2022/09/26 12:43:34;;;;;;;2.30;1.80;;;12.20;99.90;;;;;;5008372;28;20255;-52
2022/09/26 12:46:49;;;;;;;2.40;1.80;;;12.40;99.90;;;;;;5013396;28;20604;-54
2022/09/26 12:49:48;;;;;;;1.60;1.37;;;12.30;99.90;;;;;;4980879;28;20606;-52
2022/09/26 12:52:34;;;;;;;1.97;1.63;;;12.30;99.90;;;;;;5009036;28;20241;-53
2022/09/26 12:55:38;;;;;;;2.47;1.63;;;12.20;99.90;;;;;;5012722;28;20196;-50
2022/09/26 12:58:30;;;;;;;2.70;1.53;;;12.30;99.90;;;;;;5007008;28;20380;-51
2022/09/26 13:01:27;;;;;;;3.43;1.50;;;12.20;99.90;;;;;;5015578;28;20230;-52
2022/09/26 13:04:27;;;;;;;1.77;1.53;;;12.30;99.90;;;;;;5013277;28;20200;-53
2022/09/26 13:07:27;;;;;;;3.23;1.50;;;12.40;99.90;;;;;;5011703;28;20209;-59
2022/09/26 13:10:18;;;;;;;2.30;1.83;;;12.40;99.90;;;;;;5009395;28;20547;-52
2022/09/26 13:13:22;;;;;;;2.30;1.67;;;12.40;99.90;;;;;;5015060;28;20222;-53
2022/09/26 13:16:13;;;;;;;1.40;1.30;;;12.40;99.90;;;;;;5012742;28;20447;-52
2022/09/26 13:18:46;;;;;;;2.33;1.33;;;12.40;99.90;;;;;;5014339;28;20197;-52
2022/09/26 13:21:23;;;;;;;1.30;1.20;;;12.50;99.90;;;;;;5019359;28;20734;-53
2022/09/26 13:23:59;;;;;;;2.00;1.47;;;12.40;99.90;;;;;;5010202;28;20243;-52
2022/09/26 13:26:34;;;;;;;1.73;1.30;;;12.50;99.90;;;;;;5014640;28;20200;-51
2022/09/26 13:29:11;;;;;;;2.20;1.57;;;12.50;99.90;;;;;;5012377;28;20294;-51
2022/09/26 13:31:54;;;;;;;1.53;1.43;;;12.50;99.90;;;;;;5011680;28;20415;-53
2022/09/26 13:34:39;;;;;;;1.40;1.30;;;12.40;99.90;;;;;;5011925;28;20245;-54
2022/09/26 13:37:16;;;;;;;1.83;1.20;;;12.50;99.90;;;;;;5014798;28;21207;-52
2022/09/26 13:39:57;;;;;;;2.43;1.80;;;12.40;99.90;;;;;;5020217;28;20618;-53
2022/09/26 13:42:37;;;;;;;1.67;1.57;;;12.60;99.90;;;;;;5011609;28;20211;-53
2022/09/26 13:45:09;;;;;;;2.60;1.67;;;12.60;99.90;;;;;;5014286;28;20215;-53